Terminal Aerodrome Forecast
Issued by NWS

Home | Current Version | Previous Version | Text Only | Print | Product List | Glossary On
Versions: 1 2 3 4 5 6 7 8 9 10 11 12 13 14 15 16 17 18 19 20
814
FTUS46 KMTR 261728
TAFMRY
TAF
KMRY 261728Z 2618/2718 24010KT P6SM BKN020 OVC030
     FM262000 25012G18KT P6SM FEW020 SCT025
     FM270100 23008KT P6SM FEW015 OVC022
     FM270400 21004KT P6SM SCT013 OVC018
     FM271000 20003KT P6SM BKN011 OVC016=

USA.gov is the U.S. government's official web portal to all federal, state and local government web resources and services.